createdAt,value
2017-08-17T00:00:19.405Z,993.09
2017-08-17T00:01:19.418Z,993.11
2017-08-17T00:02:19.414Z,993.14
2017-08-17T00:03:19.416Z,993.12
2017-08-17T00:04:19.428Z,993.14
2017-08-17T00:05:19.420Z,993.13
2017-08-17T00:06:19.430Z,993.14
2017-08-17T00:07:19.429Z,993.1
2017-08-17T00:08:19.433Z,993.15
2017-08-17T00:09:19.430Z,993.1
2017-08-17T00:10:19.436Z,993.11
2017-08-17T00:11:19.439Z,993.1
2017-08-17T00:12:19.441Z,993.1
2017-08-17T00:13:19.441Z,993.11
2017-08-17T00:14:19.446Z,993.12
2017-08-17T00:15:19.448Z,993.1
2017-08-17T00:16:19.452Z,993.1
2017-08-17T00:17:19.461Z,993.09
2017-08-17T00:18:19.458Z,993.07
2017-08-17T00:19:19.464Z,992.99
2017-08-17T00:20:19.463Z,993.06
2017-08-17T00:21:19.471Z,993.02
2017-08-17T00:22:19.470Z,993.06
2017-08-17T00:23:19.486Z,993.03
2017-08-17T00:24:19.484Z,993.02
2017-08-17T00:25:19.484Z,993.05
2017-08-17T00:26:19.481Z,993.08
2017-08-17T00:27:19.488Z,993.08
2017-08-17T00:28:19.488Z,993.05
2017-08-17T00:29:19.499Z,993.07
2017-08-17T00:30:19.509Z,993.13
2017-08-17T00:31:19.496Z,993.16
2017-08-17T00:32:19.498Z,993.2
2017-08-17T00:33:19.571Z,993.2
2017-08-17T00:34:19.538Z,993.22
2017-08-17T00:35:19.515Z,993.22
2017-08-17T00:36:19.510Z,993.24
2017-08-17T00:37:19.517Z,993.19
2017-08-17T00:38:19.515Z,993.26
2017-08-17T00:39:19.527Z,993.24
2017-08-17T00:40:19.521Z,993.25
2017-08-17T00:41:19.531Z,993.22
2017-08-17T00:42:19.526Z,993.19
2017-08-17T00:43:19.530Z,993.19
2017-08-17T00:44:19.536Z,993.19
2017-08-17T00:45:19.539Z,993.21
2017-08-17T00:46:19.562Z,993.23
2017-08-17T00:47:19.542Z,993.23
2017-08-17T00:48:19.577Z,993.29
2017-08-17T00:49:19.555Z,993.33
2017-08-17T00:50:19.564Z,993.32
2017-08-17T00:51:19.567Z,993.32
2017-08-17T00:52:19.569Z,993.31
2017-08-17T00:53:19.568Z,993.27
2017-08-17T00:54:19.566Z,993.23
2017-08-17T00:55:19.565Z,993.28
2017-08-17T00:56:19.571Z,993.28
2017-08-17T00:57:19.590Z,993.29
2017-08-17T00:58:19.571Z,993.3
2017-08-17T00:59:19.574Z,993.27
2017-08-17T01:00:19.577Z,993.27
2017-08-17T01:01:19.581Z,993.24
2017-08-17T01:02:19.583Z,993.22
2017-08-17T01:03:19.585Z,993.23
2017-08-17T01:04:19.590Z,993.21
2017-08-17T01:05:19.591Z,993.25
2017-08-17T01:06:19.593Z,993.23
2017-08-17T01:07:19.598Z,993.24
2017-08-17T01:08:19.599Z,993.2
2017-08-17T01:09:19.602Z,993.19
2017-08-17T01:10:19.605Z,993.15
2017-08-17T01:11:19.607Z,993.18
2017-08-17T01:12:19.611Z,993.16
2017-08-17T01:13:19.618Z,993.14
2017-08-17T01:14:19.634Z,993.13
2017-08-17T01:15:19.635Z,993.13
2017-08-17T01:16:19.634Z,993.07
2017-08-17T01:17:19.634Z,993.07
2017-08-17T01:18:19.637Z,993.07
2017-08-17T01:19:19.633Z,993.08
2017-08-17T01:20:19.654Z,993.09
2017-08-17T01:21:19.638Z,993.08
2017-08-17T01:22:19.649Z,993.07
2017-08-17T01:23:19.641Z,993.09
2017-08-17T01:24:19.645Z,993.06
2017-08-17T01:25:19.647Z,993.04
2017-08-17T01:26:19.650Z,993.04
2017-08-17T01:27:19.655Z,993.05
2017-08-17T01:28:19.656Z,993.05
2017-08-17T01:29:19.661Z,993.06
2017-08-17T01:30:23.217Z,993.03
2017-08-17T01:31:19.666Z,993.01
2017-08-17T01:32:19.667Z,993.04
2017-08-17T01:33:19.669Z,993.02
2017-08-17T01:34:19.673Z,993
2017-08-17T01:35:20.057Z,993.01
2017-08-17T01:36:19.677Z,993
2017-08-17T01:37:19.678Z,992.99
2017-08-17T01:38:19.682Z,992.94
2017-08-17T01:39:19.683Z,992.92
2017-08-17T01:40:19.686Z,992.93
2017-08-17T01:41:19.689Z,992.89
2017-08-17T01:42:19.692Z,992.88
2017-08-17T01:43:19.700Z,992.87
2017-08-17T01:44:19.698Z,992.87
2017-08-17T01:45:19.702Z,992.86
2017-08-17T01:46:19.704Z,992.89
2017-08-17T01:47:19.707Z,992.91
2017-08-17T01:48:19.707Z,992.92
2017-08-17T01:49:19.710Z,992.89
2017-08-17T01:50:19.712Z,992.92
2017-08-17T01:51:19.723Z,992.91
2017-08-17T01:52:19.718Z,992.86
2017-08-17T01:53:19.721Z,992.84
2017-08-17T01:54:19.723Z,992.84
2017-08-17T01:55:19.726Z,992.82
2017-08-17T01:56:19.732Z,992.82
2017-08-17T01:57:19.732Z,992.84
2017-08-17T01:58:19.733Z,992.81
2017-08-17T01:59:19.736Z,992.81
2017-08-17T02:00:19.740Z,992.86
2017-08-17T02:01:19.741Z,992.82
2017-08-17T02:02:19.744Z,992.82
2017-08-17T02:03:19.746Z,992.79
2017-08-17T02:04:19.749Z,992.82
2017-08-17T02:05:19.759Z,992.77
2017-08-17T02:06:19.755Z,992.78
2017-08-17T02:07:19.756Z,992.76
2017-08-17T02:08:19.759Z,992.75
2017-08-17T02:09:19.761Z,992.78
2017-08-17T02:10:19.764Z,992.77
2017-08-17T02:11:19.768Z,992.81
2017-08-17T02:12:19.769Z,992.79
2017-08-17T02:13:19.771Z,992.8
2017-08-17T02:14:19.773Z,992.78
2017-08-17T02:15:19.775Z,992.81
2017-08-17T02:16:19.777Z,992.8
2017-08-17T02:17:19.781Z,992.82
2017-08-17T02:18:19.785Z,992.81
2017-08-17T02:19:19.786Z,992.83
2017-08-17T02:20:19.804Z,992.83
2017-08-17T02:21:19.795Z,992.79
2017-08-17T02:22:19.793Z,992.84
2017-08-17T02:23:19.794Z,992.88
2017-08-17T02:24:19.798Z,992.88
2017-08-17T02:25:19.798Z,992.92
2017-08-17T02:26:19.806Z,992.88
2017-08-17T02:27:19.804Z,992.9
2017-08-17T02:28:19.808Z,992.9
2017-08-17T02:29:19.816Z,992.89
2017-08-17T02:30:19.814Z,992.91
2017-08-17T02:31:24.020Z,992.93
2017-08-17T02:32:19.819Z,992.87
2017-08-17T02:33:19.821Z,992.86
2017-08-17T02:34:19.822Z,992.86
2017-08-17T02:35:19.824Z,992.84
2017-08-17T02:36:19.828Z,992.85
2017-08-17T02:37:19.831Z,992.89
2017-08-17T02:38:19.853Z,992.9
2017-08-17T02:39:19.838Z,992.94
2017-08-17T02:40:19.839Z,992.9
2017-08-17T02:41:19.840Z,992.92
2017-08-17T02:42:19.842Z,992.9
2017-08-17T02:43:19.844Z,992.91
2017-08-17T02:44:19.849Z,992.95
2017-08-17T02:45:19.849Z,992.96
2017-08-17T02:46:19.860Z,992.92
2017-08-17T02:47:19.854Z,992.98
2017-08-17T02:48:19.857Z,993
2017-08-17T02:49:19.859Z,993.03
2017-08-17T02:50:19.860Z,993.01
2017-08-17T02:51:19.864Z,993.01
2017-08-17T02:52:19.866Z,993
2017-08-17T02:53:19.867Z,992.96
2017-08-17T02:54:19.872Z,992.95
2017-08-17T02:55:19.872Z,992.92
2017-08-17T02:56:19.873Z,992.9
2017-08-17T02:57:19.877Z,992.92
2017-08-17T02:58:19.878Z,992.89
2017-08-17T02:59:19.880Z,992.92
2017-08-17T03:00:19.883Z,992.9
2017-08-17T03:01:19.882Z,992.91
2017-08-17T03:02:19.886Z,992.94
2017-08-17T03:03:19.889Z,992.98
2017-08-17T03:04:19.891Z,993
2017-08-17T03:05:19.893Z,993.01
2017-08-17T03:06:19.897Z,993
2017-08-17T03:07:19.898Z,993.01
2017-08-17T03:08:19.908Z,993.03
2017-08-17T03:09:19.913Z,993.01
2017-08-17T03:10:19.911Z,993.04
2017-08-17T03:11:19.909Z,993.04
2017-08-17T03:12:19.912Z,993.06
2017-08-17T03:13:19.912Z,993.08
2017-08-17T03:14:19.913Z,993.07
2017-08-17T03:15:19.916Z,993.07
2017-08-17T03:16:19.918Z,993
2017-08-17T03:17:19.923Z,992.97
2017-08-17T03:18:19.923Z,992.94
2017-08-17T03:19:19.924Z,992.89
2017-08-17T03:20:19.927Z,992.88
2017-08-17T03:21:19.930Z,992.88
2017-08-17T03:22:19.932Z,992.88
2017-08-17T03:23:19.934Z,992.87
2017-08-17T03:24:19.938Z,992.9
2017-08-17T03:25:19.936Z,992.87
2017-08-17T03:26:19.940Z,992.87
2017-08-17T03:27:19.943Z,992.87
2017-08-17T03:28:19.946Z,992.89
2017-08-17T03:29:19.947Z,992.88
2017-08-17T03:30:19.951Z,992.9
2017-08-17T03:31:19.954Z,992.87
2017-08-17T03:32:21.705Z,992.86
2017-08-17T03:33:19.956Z,992.85
2017-08-17T03:34:20.032Z,992.83
2017-08-17T03:35:20.012Z,992.84
2017-08-17T03:36:19.963Z,992.81
2017-08-17T03:37:19.967Z,992.85
2017-08-17T03:38:19.979Z,992.88
2017-08-17T03:39:19.978Z,992.9
2017-08-17T03:40:19.980Z,992.84
2017-08-17T03:41:19.982Z,992.85
2017-08-17T03:42:19.982Z,992.83
2017-08-17T03:43:19.982Z,992.81
2017-08-17T03:44:19.984Z,992.85
2017-08-17T03:45:19.986Z,992.81
2017-08-17T03:46:19.989Z,992.84
2017-08-17T03:47:19.990Z,992.86
2017-08-17T03:48:19.992Z,992.85
2017-08-17T03:49:19.994Z,992.79
2017-08-17T03:50:19.998Z,992.82
2017-08-17T03:51:19.999Z,992.87
2017-08-17T03:52:20.003Z,992.87
2017-08-17T03:53:20.011Z,992.88
2017-08-17T03:54:20.006Z,992.85
2017-08-17T03:55:20.009Z,992.88
2017-08-17T03:56:20.012Z,992.88
2017-08-17T03:57:20.034Z,992.89
2017-08-17T03:58:20.015Z,992.88
2017-08-17T03:59:20.034Z,992.91
2017-08-17T04:00:20.020Z,992.91
2017-08-17T04:01:20.021Z,992.91
2017-08-17T04:02:20.035Z,992.89
2017-08-17T04:03:20.035Z,992.88
2017-08-17T04:04:20.035Z,992.91
2017-08-17T04:05:20.040Z,992.9
2017-08-17T04:06:20.047Z,992.85
2017-08-17T04:07:20.034Z,992.89
2017-08-17T04:08:20.039Z,992.85
2017-08-17T04:09:20.040Z,992.87
2017-08-17T04:10:20.044Z,992.86
2017-08-17T04:11:20.048Z,992.83
2017-08-17T04:12:20.046Z,992.85
2017-08-17T04:13:20.046Z,992.85
2017-08-17T04:14:20.050Z,992.83
2017-08-17T04:15:20.051Z,992.84
2017-08-17T04:16:20.053Z,992.87
2017-08-17T04:17:20.056Z,992.87
2017-08-17T04:18:20.056Z,992.91
2017-08-17T04:19:20.061Z,992.94
2017-08-17T04:20:20.061Z,992.94
2017-08-17T04:21:20.066Z,992.95
2017-08-17T04:22:20.068Z,992.92
2017-08-17T04:23:20.070Z,992.99
2017-08-17T04:24:20.075Z,993.02
2017-08-17T04:25:20.075Z,993.02
2017-08-17T04:26:20.086Z,993.08
2017-08-17T04:27:20.078Z,993.07
2017-08-17T04:28:20.088Z,993.08
2017-08-17T04:29:20.091Z,993.08
2017-08-17T04:30:20.088Z,993.08
2017-08-17T04:31:20.086Z,993.07
2017-08-17T04:32:20.092Z,993.04
2017-08-17T04:33:20.094Z,993.07
2017-08-17T04:34:20.105Z,993.07
2017-08-17T04:35:20.098Z,993.09
2017-08-17T04:36:20.118Z,993.09
2017-08-17T04:37:20.110Z,993.12
2017-08-17T04:38:20.109Z,993.1
2017-08-17T04:39:20.107Z,993.11
2017-08-17T04:40:20.109Z,993.07
2017-08-17T04:41:20.119Z,993.1
2017-08-17T04:42:20.116Z,993.05
2017-08-17T04:43:20.120Z,993.06
2017-08-17T04:44:20.118Z,993.02
2017-08-17T04:45:20.125Z,993.05
2017-08-17T04:46:20.123Z,993.13
2017-08-17T04:47:20.136Z,993.12
2017-08-17T04:48:20.178Z,993.15
2017-08-17T04:49:20.141Z,993.19
2017-08-17T04:50:20.138Z,993.2
2017-08-17T04:51:20.140Z,993.21
2017-08-17T04:52:20.139Z,993.15
2017-08-17T04:53:20.141Z,993.18
2017-08-17T04:54:20.143Z,993.19
2017-08-17T04:55:20.147Z,993.19
2017-08-17T04:56:20.160Z,993.25
2017-08-17T04:57:20.159Z,993.26
2017-08-17T04:58:20.156Z,993.25
2017-08-17T04:59:20.163Z,993.25
2017-08-17T05:00:20.161Z,993.24
2017-08-17T05:01:20.168Z,993.24
2017-08-17T05:02:20.167Z,993.22
2017-08-17T05:03:20.485Z,993.25
2017-08-17T05:04:20.174Z,993.22
2017-08-17T05:05:20.176Z,993.22
2017-08-17T05:06:20.186Z,993.23
2017-08-17T05:07:20.187Z,993.2
2017-08-17T05:08:20.188Z,993.23
2017-08-17T05:09:20.191Z,993.23
2017-08-17T05:10:20.207Z,993.28
2017-08-17T05:11:20.208Z,993.27
2017-08-17T05:12:20.209Z,993.28
2017-08-17T05:13:20.207Z,993.27
2017-08-17T05:14:20.209Z,993.28
2017-08-17T05:15:20.213Z,993.35
2017-08-17T05:16:20.216Z,993.28
2017-08-17T05:17:20.220Z,993.24
2017-08-17T05:18:20.224Z,993.35
2017-08-17T05:19:20.229Z,993.37
2017-08-17T05:20:20.232Z,993.4
2017-08-17T05:21:20.236Z,993.39
2017-08-17T05:22:20.238Z,993.36
2017-08-17T05:23:20.244Z,993.35
2017-08-17T05:24:20.250Z,993.37
2017-08-17T05:25:20.250Z,993.35
2017-08-17T05:26:20.256Z,993.36
2017-08-17T05:27:20.257Z,993.37
2017-08-17T05:28:20.265Z,993.36
2017-08-17T05:29:20.266Z,993.34
2017-08-17T05:30:20.272Z,993.28
2017-08-17T05:31:20.275Z,993.24
2017-08-17T05:32:20.282Z,993.23
2017-08-17T05:33:20.288Z,993.28
2017-08-17T05:34:20.295Z,993.24
2017-08-17T05:35:20.295Z,993.25
2017-08-17T05:36:20.300Z,993.21
2017-08-17T05:37:20.303Z,993.24
2017-08-17T05:38:20.308Z,993.23
2017-08-17T05:39:20.312Z,993.28
2017-08-17T05:40:20.317Z,993.24
2017-08-17T05:41:20.320Z,993.24
2017-08-17T05:42:20.334Z,993.27
2017-08-17T05:43:20.327Z,993.32
2017-08-17T05:44:20.350Z,993.31
2017-08-17T05:45:20.334Z,993.32
2017-08-17T05:46:20.340Z,993.38
2017-08-17T05:47:20.343Z,993.36
2017-08-17T05:48:20.346Z,993.4
2017-08-17T05:49:20.351Z,993.44
2017-08-17T05:50:20.356Z,993.45
2017-08-17T05:51:20.357Z,993.49
2017-08-17T05:52:20.361Z,993.48
2017-08-17T05:53:20.381Z,993.49
2017-08-17T05:54:20.372Z,993.48
2017-08-17T05:55:20.372Z,993.47
2017-08-17T05:56:20.380Z,993.44
2017-08-17T05:57:20.397Z,993.44
2017-08-17T05:58:20.382Z,993.38
2017-08-17T05:59:20.386Z,993.45
2017-08-17T06:00:20.394Z,993.41
2017-08-17T06:01:20.394Z,993.43
2017-08-17T06:02:20.400Z,993.39
2017-08-17T06:03:20.401Z,993.41
2017-08-17T06:04:20.405Z,993.39
2017-08-17T06:05:20.410Z,993.43
2017-08-17T06:06:20.417Z,993.46
2017-08-17T06:07:20.416Z,993.49
2017-08-17T06:08:20.420Z,993.54
2017-08-17T06:09:20.423Z,993.51
2017-08-17T06:10:20.432Z,993.41
2017-08-17T06:11:20.432Z,993.42
2017-08-17T06:12:20.436Z,993.43
2017-08-17T06:13:20.439Z,993.47
2017-08-17T06:14:20.442Z,993.51
2017-08-17T06:15:20.447Z,993.48
2017-08-17T06:16:20.452Z,993.46
2017-08-17T06:17:20.455Z,993.45
2017-08-17T06:18:20.461Z,993.46
2017-08-17T06:19:20.464Z,993.48
2017-08-17T06:20:20.482Z,993.47
2017-08-17T06:21:20.492Z,993.53
2017-08-17T06:22:20.476Z,993.52
2017-08-17T06:23:20.482Z,993.49
2017-08-17T06:24:20.486Z,993.49
2017-08-17T06:25:20.490Z,993.44
2017-08-17T06:26:20.496Z,993.43
2017-08-17T06:27:20.499Z,993.39
2017-08-17T06:28:20.504Z,993.33
2017-08-17T06:29:20.508Z,993.34
2017-08-17T06:30:20.514Z,993.36
2017-08-17T06:31:20.517Z,993.33
2017-08-17T06:32:20.521Z,993.36
2017-08-17T06:33:20.527Z,993.47
2017-08-17T06:34:21.333Z,993.5
2017-08-17T06:35:20.538Z,993.55
2017-08-17T06:36:20.541Z,993.52
2017-08-17T06:37:20.547Z,993.56
2017-08-17T06:38:20.552Z,993.58
2017-08-17T06:39:20.556Z,993.56
2017-08-17T06:40:20.565Z,993.51
2017-08-17T06:41:20.568Z,993.55
2017-08-17T06:42:20.574Z,993.48
2017-08-17T06:43:20.578Z,993.55
2017-08-17T06:44:20.585Z,993.56
2017-08-17T06:45:20.591Z,993.55
2017-08-17T06:46:20.596Z,993.56
2017-08-17T06:47:20.614Z,993.53
2017-08-17T06:48:20.610Z,993.53
2017-08-17T06:49:21.422Z,993.53
2017-08-17T06:50:20.621Z,993.56
2017-08-17T06:51:20.628Z,993.59
2017-08-17T06:52:20.636Z,993.6
2017-08-17T06:53:20.643Z,993.59
2017-08-17T06:54:20.654Z,993.66
2017-08-17T06:55:20.657Z,993.58
2017-08-17T06:56:20.665Z,993.53
2017-08-17T06:57:20.672Z,993.55
2017-08-17T06:58:20.680Z,993.47
2017-08-17T06:59:20.691Z,993.48
2017-08-17T07:00:20.701Z,993.49
2017-08-17T07:01:20.704Z,993.34
2017-08-17T07:02:20.711Z,993.23
2017-08-17T07:03:20.722Z,993.2
2017-08-17T07:04:23.929Z,993.15
2017-08-17T07:05:20.741Z,993.2
2017-08-17T07:06:20.740Z,993.16
2017-08-17T07:07:20.749Z,993.12
2017-08-17T07:08:20.756Z,993.11
2017-08-17T07:09:20.763Z,993.26
2017-08-17T07:10:20.781Z,993.21
2017-08-17T07:11:20.784Z,993.14
2017-08-17T07:12:20.789Z,993.15
2017-08-17T07:13:20.791Z,993.15
2017-08-17T07:14:20.798Z,993.17
2017-08-17T07:15:20.805Z,993.15
2017-08-17T07:16:20.814Z,993.15
2017-08-17T07:17:20.819Z,993.17
2017-08-17T07:18:20.826Z,993.2
2017-08-17T07:19:20.841Z,993.18
2017-08-17T07:20:20.842Z,993.15
2017-08-17T07:21:20.851Z,993.17
2017-08-17T07:22:20.858Z,993.15
2017-08-17T07:23:20.866Z,993.17
2017-08-17T07:24:20.875Z,993.2
2017-08-17T07:25:20.883Z,993.21
2017-08-17T07:26:20.895Z,993.26
2017-08-17T07:27:20.904Z,993.28
2017-08-17T07:28:20.915Z,993.27
2017-08-17T07:29:20.919Z,993.28
2017-08-17T07:30:20.924Z,993.22
2017-08-17T07:31:20.936Z,993.26
2017-08-17T07:32:20.945Z,993.32
2017-08-17T07:33:20.955Z,993.36
2017-08-17T07:34:20.990Z,993.37
2017-08-17T07:35:20.973Z,993.37
2017-08-17T07:36:20.986Z,993.38
2017-08-17T07:37:20.989Z,993.38
2017-08-17T07:38:21.011Z,993.37
2017-08-17T07:39:21.014Z,993.34
2017-08-17T07:40:21.016Z,993.38
2017-08-17T07:41:21.024Z,993.44
2017-08-17T07:42:21.031Z,993.41
2017-08-17T07:43:21.046Z,993.41
2017-08-17T07:44:21.047Z,993.38
2017-08-17T07:45:21.054Z,993.35
2017-08-17T07:46:21.072Z,993.38
2017-08-17T07:47:21.079Z,993.41
2017-08-17T07:48:21.079Z,993.37
2017-08-17T07:49:21.090Z,993.39
2017-08-17T07:50:21.094Z,993.35
2017-08-17T07:51:21.102Z,993.36
2017-08-17T07:52:21.108Z,993.33
2017-08-17T07:53:21.115Z,993.38
2017-08-17T07:54:21.123Z,993.38
2017-08-17T07:55:21.130Z,993.28
2017-08-17T07:56:21.136Z,993.3
2017-08-17T07:57:21.143Z,993.28
2017-08-17T07:58:21.151Z,993.31
2017-08-17T07:59:21.156Z,993.42
2017-08-17T08:00:21.162Z,993.41
2017-08-17T08:01:21.171Z,993.47
2017-08-17T08:02:21.178Z,993.46
2017-08-17T08:03:21.182Z,993.46
2017-08-17T08:04:21.189Z,993.43
2017-08-17T08:05:22.247Z,993.42
2017-08-17T08:06:21.201Z,993.33
2017-08-17T08:07:21.209Z,993.3
2017-08-17T08:08:21.216Z,993.29
2017-08-17T08:09:21.223Z,993.23
2017-08-17T08:10:21.232Z,993.25
2017-08-17T08:11:21.237Z,993.28
2017-08-17T08:12:21.245Z,993.24
2017-08-17T08:13:21.253Z,993.3
2017-08-17T08:14:21.260Z,993.31
2017-08-17T08:15:21.267Z,993.31
2017-08-17T08:16:21.276Z,993.27
2017-08-17T08:17:21.283Z,993.21
2017-08-17T08:18:21.291Z,993.26
2017-08-17T08:19:21.300Z,993.26
2017-08-17T08:20:21.308Z,993.21
2017-08-17T08:21:21.315Z,993.24
2017-08-17T08:22:21.323Z,993.21
2017-08-17T08:23:21.334Z,993.27
2017-08-17T08:24:21.341Z,993.23
2017-08-17T08:25:21.351Z,993.24
2017-08-17T08:26:21.362Z,993.23
2017-08-17T08:27:21.367Z,993.29
2017-08-17T08:28:21.382Z,993.25
2017-08-17T08:29:21.384Z,993.28
2017-08-17T08:30:21.401Z,993.27
2017-08-17T08:31:21.405Z,993.26
2017-08-17T08:32:21.418Z,993.28
2017-08-17T08:33:21.417Z,993.28
2017-08-17T08:34:21.431Z,993.28
2017-08-17T08:35:21.445Z,993.28
2017-08-17T08:36:21.444Z,993.27
2017-08-17T08:37:21.453Z,993.31
2017-08-17T08:38:21.471Z,993.31
2017-08-17T08:39:21.475Z,993.34
2017-08-17T08:40:21.480Z,993.35
2017-08-17T08:41:21.490Z,993.37
2017-08-17T08:42:21.500Z,993.38
2017-08-17T08:43:21.507Z,993.36
2017-08-17T08:44:21.517Z,993.36
2017-08-17T08:45:21.528Z,993.34
2017-08-17T08:46:21.544Z,993.32
2017-08-17T08:47:21.544Z,993.33
2017-08-17T08:48:21.557Z,993.3
2017-08-17T08:49:21.563Z,993.28
2017-08-17T08:50:21.571Z,993.24
2017-08-17T08:51:21.581Z,993.22
2017-08-17T08:52:21.593Z,993.22
2017-08-17T08:53:21.598Z,993.2
2017-08-17T08:54:21.610Z,993.19
2017-08-17T08:55:21.620Z,993.17
2017-08-17T08:56:21.624Z,993.13
2017-08-17T08:57:21.636Z,993.13
2017-08-17T08:58:21.640Z,993.15
2017-08-17T08:59:21.648Z,993.13
2017-08-17T09:00:21.657Z,993.1
2017-08-17T09:01:21.666Z,993.06
2017-08-17T09:02:21.674Z,993.05
2017-08-17T09:03:21.681Z,993.08
2017-08-17T09:04:21.687Z,993.06
2017-08-17T09:05:21.697Z,993.08
2017-08-17T09:06:21.701Z,993.09
2017-08-17T09:07:21.710Z,993.02
2017-08-17T09:08:21.716Z,993.06
2017-08-17T09:09:21.725Z,993.04
2017-08-17T09:10:21.732Z,993.06
2017-08-17T09:11:22.542Z,993.08
2017-08-17T09:12:21.745Z,993.02
2017-08-17T09:13:21.751Z,993.03
2017-08-17T09:14:21.759Z,993.01
2017-08-17T09:15:21.766Z,992.99
2017-08-17T09:16:21.774Z,993
2017-08-17T09:17:21.779Z,993
2017-08-17T09:18:21.786Z,992.97
2017-08-17T09:19:21.799Z,992.96
2017-08-17T09:20:21.803Z,993.03
2017-08-17T09:21:21.808Z,993.03
2017-08-17T09:22:21.813Z,993.05
2017-08-17T09:23:21.819Z,993.06
2017-08-17T09:24:21.826Z,993.07
2017-08-17T09:25:21.836Z,993.07
2017-08-17T09:26:21.842Z,993.07
2017-08-17T09:27:21.846Z,993.06
2017-08-17T09:28:21.852Z,993
2017-08-17T09:29:21.859Z,993
2017-08-17T09:30:21.864Z,993
2017-08-17T09:31:21.872Z,993.19
2017-08-17T09:32:21.879Z,993.11
2017-08-17T09:33:21.885Z,993.07
2017-08-17T09:34:21.894Z,992.99
2017-08-17T09:35:21.899Z,992.88
2017-08-17T09:36:23.166Z,992.86
2017-08-17T09:37:21.911Z,992.78
2017-08-17T09:38:21.917Z,992.8
2017-08-17T09:39:21.927Z,992.8
2017-08-17T09:40:21.929Z,992.81
2017-08-17T09:41:21.937Z,992.69
2017-08-17T09:42:21.943Z,992.74
2017-08-17T09:43:21.955Z,992.73
2017-08-17T09:44:21.957Z,992.68
2017-08-17T09:45:21.963Z,992.72
2017-08-17T09:46:21.970Z,992.71
2017-08-17T09:47:21.978Z,992.75
2017-08-17T09:48:21.985Z,992.81
2017-08-17T09:49:21.990Z,992.78
2017-08-17T09:50:22.004Z,992.82
2017-08-17T09:51:22.006Z,992.89
2017-08-17T09:52:22.013Z,992.76
2017-08-17T09:53:22.019Z,992.79
2017-08-17T09:54:22.027Z,992.66
2017-08-17T09:55:22.037Z,992.65
2017-08-17T09:56:22.043Z,992.57
2017-08-17T09:57:22.047Z,992.5
2017-08-17T09:58:22.058Z,992.47
2017-08-17T09:59:22.066Z,992.47
2017-08-17T10:00:22.067Z,992.48
2017-08-17T10:01:22.082Z,992.51
2017-08-17T10:02:22.083Z,992.53
2017-08-17T10:03:22.089Z,992.5
2017-08-17T10:04:22.101Z,992.51
2017-08-17T10:05:22.103Z,992.42
2017-08-17T10:06:22.108Z,992.47
2017-08-17T10:07:22.115Z,992.46
2017-08-17T10:08:22.132Z,992.48
2017-08-17T10:09:22.132Z,992.45
2017-08-17T10:10:22.139Z,992.4
2017-08-17T10:11:22.141Z,992.37
2017-08-17T10:12:22.148Z,992.38
2017-08-17T10:13:22.154Z,992.45
2017-08-17T10:14:22.179Z,992.5
2017-08-17T10:15:22.168Z,992.49
2017-08-17T10:16:22.174Z,992.39
2017-08-17T10:17:22.181Z,992.4
2017-08-17T10:18:22.190Z,992.35
2017-08-17T10:19:22.194Z,992.36
2017-08-17T10:20:22.201Z,992.32
2017-08-17T10:21:22.207Z,992.3
2017-08-17T10:22:22.214Z,992.29
2017-08-17T10:23:22.219Z,992.28
2017-08-17T10:24:22.232Z,992.21
2017-08-17T10:25:22.235Z,992.26
2017-08-17T10:26:22.241Z,992.19
2017-08-17T10:27:22.249Z,992.09
2017-08-17T10:28:22.255Z,992.16
2017-08-17T10:29:22.262Z,992.15
2017-08-17T10:30:22.267Z,992.03
2017-08-17T10:31:22.273Z,992.06
2017-08-17T10:32:22.282Z,992.24
2017-08-17T10:33:22.289Z,992.35
2017-08-17T10:34:22.295Z,992.44
2017-08-17T10:35:22.303Z,992.62
2017-08-17T10:36:22.310Z,992.69
2017-08-17T10:37:22.315Z,992.65
2017-08-17T10:38:22.325Z,992.65
2017-08-17T10:39:22.334Z,992.59
2017-08-17T10:40:22.336Z,992.64
2017-08-17T10:41:22.351Z,992.64
2017-08-17T10:42:22.349Z,992.71
2017-08-17T10:43:22.356Z,992.67
2017-08-17T10:44:22.363Z,992.68
2017-08-17T10:45:22.391Z,992.7
2017-08-17T10:46:22.374Z,992.69
2017-08-17T10:47:22.380Z,992.73
2017-08-17T10:48:22.386Z,992.72
2017-08-17T10:49:22.392Z,992.76
2017-08-17T10:50:22.399Z,992.75
2017-08-17T10:51:22.404Z,992.76
2017-08-17T10:52:22.411Z,992.84
2017-08-17T10:53:22.416Z,992.83
2017-08-17T10:54:22.425Z,992.81
2017-08-17T10:55:22.428Z,992.84
2017-08-17T10:56:22.433Z,992.79
2017-08-17T10:57:22.440Z,992.77
2017-08-17T10:58:22.446Z,992.72
2017-08-17T10:59:22.451Z,992.77
2017-08-17T11:00:22.458Z,992.83
2017-08-17T11:01:22.463Z,992.85
2017-08-17T11:02:22.504Z,992.89
2017-08-17T11:03:22.473Z,992.95
2017-08-17T11:04:22.527Z,992.93
2017-08-17T11:05:22.489Z,992.91
2017-08-17T11:06:22.490Z,992.98
2017-08-17T11:07:22.496Z,992.97
2017-08-17T11:08:22.503Z,992.89
2017-08-17T11:09:22.508Z,992.84
2017-08-17T11:10:22.514Z,992.88
2017-08-17T11:11:22.520Z,992.94
2017-08-17T11:12:22.527Z,992.93
2017-08-17T11:13:22.531Z,992.96
2017-08-17T11:14:22.549Z,992.91
2017-08-17T11:15:22.551Z,992.91
2017-08-17T11:16:22.552Z,992.9
2017-08-17T11:17:22.555Z,992.91
2017-08-17T11:18:22.561Z,992.89
2017-08-17T11:19:22.567Z,992.86
2017-08-17T11:20:22.572Z,992.83
2017-08-17T11:21:22.578Z,992.81
2017-08-17T11:22:23.587Z,992.77
2017-08-17T11:23:22.592Z,992.7
2017-08-17T11:24:22.595Z,992.71
2017-08-17T11:25:22.602Z,992.63
2017-08-17T11:26:22.609Z,992.65
2017-08-17T11:27:22.620Z,992.64
2017-08-17T11:28:22.625Z,992.63
2017-08-17T11:29:22.627Z,992.61
2017-08-17T11:30:22.633Z,992.61
2017-08-17T11:31:22.639Z,992.6
2017-08-17T11:32:22.647Z,992.59
2017-08-17T11:33:22.653Z,992.61
2017-08-17T11:34:22.660Z,992.66
2017-08-17T11:35:22.664Z,992.65
2017-08-17T11:36:22.676Z,992.69
2017-08-17T11:37:22.675Z,992.68
2017-08-17T11:38:22.683Z,992.65
2017-08-17T11:39:22.693Z,992.64
2017-08-17T11:40:22.694Z,992.6
2017-08-17T11:41:22.702Z,992.58
2017-08-17T11:42:22.707Z,992.59
2017-08-17T11:43:22.713Z,992.6
2017-08-17T11:44:22.720Z,992.63
2017-08-17T11:45:22.726Z,992.62
2017-08-17T11:46:22.735Z,992.64
2017-08-17T11:47:22.739Z,992.63
2017-08-17T11:48:22.744Z,992.64
2017-08-17T11:49:22.750Z,992.61
2017-08-17T11:50:22.760Z,992.6
2017-08-17T11:51:22.763Z,992.64
2017-08-17T11:52:22.769Z,992.58
2017-08-17T11:53:22.777Z,992.6
2017-08-17T11:54:22.790Z,992.57
2017-08-17T11:55:22.795Z,992.55
2017-08-17T11:56:22.794Z,992.57
2017-08-17T11:57:22.800Z,992.54
2017-08-17T11:58:22.807Z,992.55
2017-08-17T11:59:22.814Z,992.57
2017-08-17T12:00:22.820Z,992.55
2017-08-17T12:01:22.826Z,992.56
2017-08-17T12:02:22.833Z,992.56
2017-08-17T12:03:22.841Z,992.55
2017-08-17T12:04:22.846Z,992.53
2017-08-17T12:05:22.852Z,992.5
2017-08-17T12:06:22.858Z,992.48
2017-08-17T12:07:22.867Z,992.55
2017-08-17T12:08:22.890Z,992.55
2017-08-17T12:09:22.880Z,992.53
2017-08-17T12:10:22.886Z,992.51
2017-08-17T12:11:22.892Z,992.43
2017-08-17T12:12:22.900Z,992.45
2017-08-17T12:13:22.907Z,992.41
2017-08-17T12:14:22.913Z,992.42
2017-08-17T12:15:22.920Z,992.42
2017-08-17T12:16:22.927Z,992.47
2017-08-17T12:17:23.018Z,992.46
2017-08-17T12:18:22.942Z,992.44
2017-08-17T12:19:22.953Z,992.43
2017-08-17T12:20:22.954Z,992.36
2017-08-17T12:21:22.964Z,992.34
2017-08-17T12:22:22.968Z,992.27
2017-08-17T12:23:22.976Z,992.21
2017-08-17T12:24:22.982Z,992.17
2017-08-17T12:25:22.990Z,992.14
2017-08-17T12:26:23.000Z,992.18
2017-08-17T12:27:23.003Z,992.16
2017-08-17T12:28:23.010Z,992.11
2017-08-17T12:29:23.016Z,992.1
2017-08-17T12:30:23.023Z,992.11
2017-08-17T12:31:23.030Z,992.11